SAS2405 EKCH-ESSV
Flight info
| Callsign | SAS2405 |
|---|---|
| Flight time | 0h 40m |
| Altitude | 35000 |
| Route | KEMAX DCT KINTI |
| Aircraft | A319/M-SDE3FGHIRWY/LB1 |
Departure
| Time | 2026-04-25 13:22 |
|---|---|
| Airport | Copenhagen Kastrup Airport (EKCH) |
Arrival
| Time | 2026-04-25 14:02 |
|---|---|
| Airport | Visby Airport (ESSV) |
| Time | Latitude | Longitude | Altitude | Speed | Heading |
|---|---|---|---|---|---|
| 2026-04-25 12:56 | 55.62713 | 12.64462 | 24 ft | 0 kts | 102° |
| 2026-04-25 13:12 | 55.62717 | 12.64423 | 24 ft | 4 kts | 102° |
| 2026-04-25 13:12 | 55.62720 | 12.64400 | 28 ft | 3 kts | 101° |
| 2026-04-25 13:13 | 55.62713 | 12.64346 | 24 ft | 4 kts | 28° |
| 2026-04-25 13:13 | 55.62691 | 12.64329 | 27 ft | 4 kts | 21° |
| 2026-04-25 13:13 | 55.62665 | 12.64311 | 27 ft | 3 kts | 21° |
| 2026-04-25 13:13 | 55.62646 | 12.64298 | 27 ft | 4 kts | 25° |
| 2026-04-25 13:14 | 55.62623 | 12.64275 | 27 ft | 3 kts | 34° |
| 2026-04-25 13:14 | 55.62604 | 12.64246 | 25 ft | 4 kts | 68° |
| 2026-04-25 13:14 | 55.62602 | 12.64201 | 28 ft | 4 kts | 114° |
| 2026-04-25 13:14 | 55.62615 | 12.64162 | 24 ft | 4 kts | 123° |
| 2026-04-25 13:15 | 55.62629 | 12.64126 | 26 ft | 1 kts | 123° |
| 2026-04-25 13:15 | 55.62629 | 12.64125 | 27 ft | 0 kts | 123° |
| 2026-04-25 13:17 | 55.62628 | 12.64129 | 26 ft | 2 kts | 123° |
| 2026-04-25 13:17 | 55.62609 | 12.64179 | 24 ft | 7 kts | 123° |
| 2026-04-25 13:17 | 55.62574 | 12.64274 | 24 ft | 11 kts | 123° |
| 2026-04-25 13:17 | 55.62526 | 12.64402 | 24 ft | 11 kts | 123° |
| 2026-04-25 13:18 | 55.62459 | 12.64480 | 24 ft | 14 kts | 192° |
| 2026-04-25 13:18 | 55.62364 | 12.64435 | 24 ft | 12 kts | 195° |
| 2026-04-25 13:18 | 55.62353 | 12.64430 | 24 ft | 0 kts | 195° |
| 2026-04-25 13:18 | 55.62346 | 12.64426 | 24 ft | 3 kts | 195° |
| 2026-04-25 13:19 | 55.62314 | 12.64411 | 23 ft | 7 kts | 195° |
| 2026-04-25 13:19 | 55.62254 | 12.64382 | 22 ft | 11 kts | 195° |
| 2026-04-25 13:19 | 55.62169 | 12.64321 | 23 ft | 14 kts | 206° |
| 2026-04-25 13:19 | 55.62106 | 12.64267 | 25 ft | 16 kts | 206° |
| 2026-04-25 13:20 | 55.61951 | 12.64130 | 24 ft | 23 kts | 207° |
| 2026-04-25 13:20 | 55.61810 | 12.64073 | 24 ft | 15 kts | 175° |
| 2026-04-25 13:20 | 55.61699 | 12.64089 | 30 ft | 10 kts | 175° |
| 2026-04-25 13:20 | 55.61636 | 12.64078 | 27 ft | 10 kts | 203° |
| 2026-04-25 13:21 | 55.61571 | 12.63984 | 28 ft | 0 kts | 220° |
| 2026-04-25 13:21 | 55.61523 | 12.63908 | 27 ft | 38 kts | 222° |
| 2026-04-25 13:21 | 55.61144 | 12.63323 | 27 ft | 103 kts | 221° |
| 2026-04-25 13:21 | 55.60476 | 12.62285 | 130 ft | 142 kts | 232° |
| 2026-04-25 13:22 | 55.59762 | 12.61103 | 808 ft | 141 kts | 233° |
| 2026-04-25 13:22 | 55.59056 | 12.59888 | 1559 ft | 142 kts | 234° |
| 2026-04-25 13:22 | 55.58318 | 12.58656 | 2117 ft | 155 kts | 234° |
| 2026-04-25 13:23 | 55.56426 | 12.55730 | 2862 ft | 211 kts | 223° |
| 2026-04-25 13:23 | 55.54998 | 12.54508 | 3405 ft | 245 kts | 208° |
| 2026-04-25 13:23 | 55.53310 | 12.53544 | 4239 ft | 262 kts | 204° |
| 2026-04-25 13:23 | 55.51528 | 12.52646 | 5300 ft | 269 kts | 204° |
| 2026-04-25 13:24 | 55.49706 | 12.51713 | 6339 ft | 276 kts | 205° |
| 2026-04-25 13:24 | 55.47857 | 12.50710 | 7339 ft | 280 kts | 206° |
| 2026-04-25 13:24 | 55.45935 | 12.49893 | 8365 ft | 296 kts | 192° |
| 2026-04-25 13:24 | 55.43841 | 12.50579 | 9349 ft | 323 kts | 161° |
| 2026-04-25 13:25 | 55.42031 | 12.53092 | 10142 ft | 348 kts | 131° |
| 2026-04-25 13:25 | 55.40809 | 12.56930 | 10543 ft | 371 kts | 107° |
| 2026-04-25 13:25 | 55.40537 | 12.61439 | 11235 ft | 372 kts | 77° |
| 2026-04-25 13:25 | 55.41348 | 12.65676 | 12030 ft | 363 kts | 53° |
| 2026-04-25 13:26 | 55.42788 | 12.69258 | 12877 ft | 355 kts | 38° |
| 2026-04-25 13:26 | 55.44595 | 12.72136 | 13704 ft | 346 kts | 24° |
| 2026-04-25 13:26 | 55.46686 | 12.74052 | 14425 ft | 333 kts | 8° |
| 2026-04-25 13:26 | 55.48913 | 12.74808 | 15167 ft | 322 kts | 354° |
| 2026-04-25 13:27 | 55.51159 | 12.75310 | 15935 ft | 331 kts | 359° |
| 2026-04-25 13:27 | 55.53438 | 12.76145 | 16700 ft | 336 kts | 0° |
| 2026-04-25 13:27 | 55.55741 | 12.77013 | 17458 ft | 340 kts | 0° |
| 2026-04-25 13:27 | 55.58061 | 12.77907 | 18201 ft | 344 kts | 0° |
| 2026-04-25 13:28 | 55.60408 | 12.78827 | 18860 ft | 347 kts | 0° |
| 2026-04-25 13:28 | 55.61177 | 12.79130 | 19082 ft | 348 kts | 0° |
| 2026-04-25 13:28 | 55.65135 | 12.81256 | 20224 ft | 370 kts | 13° |
| 2026-04-25 13:28 | 55.67365 | 12.83630 | 20883 ft | 390 kts | 24° |
| 2026-04-25 13:29 | 55.69534 | 12.86567 | 21535 ft | 394 kts | 25° |
| 2026-04-25 13:29 | 55.71725 | 12.89534 | 22173 ft | 397 kts | 24° |
| 2026-04-25 13:29 | 55.73931 | 12.92508 | 22795 ft | 401 kts | 24° |
| 2026-04-25 13:30 | 55.78417 | 12.98555 | 23938 ft | 408 kts | 24° |
| 2026-04-25 13:30 | 55.80692 | 13.01625 | 24459 ft | 412 kts | 24° |
| 2026-04-25 13:30 | 55.82986 | 13.04727 | 24953 ft | 416 kts | 24° |
| 2026-04-25 13:31 | 55.87625 | 13.11028 | 25942 ft | 423 kts | 24° |
| 2026-04-25 13:31 | 55.89974 | 13.14227 | 26431 ft | 427 kts | 25° |
| 2026-04-25 13:31 | 55.92344 | 13.17457 | 26909 ft | 430 kts | 25° |
| 2026-04-25 13:31 | 55.94730 | 13.20721 | 27390 ft | 434 kts | 25° |
| 2026-04-25 13:32 | 55.97135 | 13.24019 | 27855 ft | 438 kts | 25° |
| 2026-04-25 13:32 | 55.99561 | 13.27345 | 28327 ft | 442 kts | 25° |
| 2026-04-25 13:32 | 56.02011 | 13.30701 | 28793 ft | 445 kts | 25° |
| 2026-04-25 13:32 | 56.04513 | 13.34133 | 29266 ft | 449 kts | 25° |
| 2026-04-25 13:33 | 56.06964 | 13.37505 | 29722 ft | 453 kts | 26° |
| 2026-04-25 13:33 | 56.09472 | 13.40970 | 30116 ft | 457 kts | 27° |
| 2026-04-25 13:33 | 56.11856 | 13.44895 | 30487 ft | 474 kts | 37° |
| 2026-04-25 13:33 | 56.12600 | 13.46393 | 30612 ft | 479 kts | 40° |
| 2026-04-25 13:34 | 56.15732 | 13.54835 | 31231 ft | 497 kts | 51° |
| 2026-04-25 13:34 | 56.17468 | 13.60199 | 31613 ft | 498 kts | 51° |
| 2026-04-25 13:34 | 56.19207 | 13.65549 | 32145 ft | 495 kts | 51° |
| 2026-04-25 13:34 | 56.20940 | 13.70885 | 32694 ft | 493 kts | 52° |
| 2026-04-25 13:35 | 56.22660 | 13.76191 | 33256 ft | 490 kts | 52° |
| 2026-04-25 13:35 | 56.24371 | 13.81474 | 33810 ft | 488 kts | 52° |
| 2026-04-25 13:35 | 56.26074 | 13.86740 | 34283 ft | 485 kts | 52° |
| 2026-04-25 13:35 | 56.27765 | 13.91987 | 34616 ft | 484 kts | 53° |
| 2026-04-25 13:36 | 56.29442 | 13.97210 | 34712 ft | 479 kts | 53° |
| 2026-04-25 13:36 | 56.32702 | 14.07449 | 34721 ft | 466 kts | 53° |
| 2026-04-25 13:37 | 56.35921 | 14.17564 | 34714 ft | 464 kts | 53° |
| 2026-04-25 13:37 | 56.39131 | 14.27657 | 34706 ft | 464 kts | 53° |
| 2026-04-25 13:38 | 56.42330 | 14.37766 | 34698 ft | 464 kts | 53° |
| 2026-04-25 13:38 | 56.45519 | 14.47916 | 34699 ft | 464 kts | 53° |
| 2026-04-25 13:39 | 56.48694 | 14.58075 | 34702 ft | 464 kts | 54° |
| 2026-04-25 13:39 | 56.51859 | 14.68252 | 34694 ft | 464 kts | 54° |
| 2026-04-25 13:40 | 56.55020 | 14.78438 | 34703 ft | 464 kts | 54° |
| 2026-04-25 13:40 | 56.58176 | 14.88645 | 34688 ft | 464 kts | 54° |
| 2026-04-25 13:41 | 56.60812 | 14.97211 | 34681 ft | 464 kts | 54° |
| 2026-04-25 13:41 | 56.63929 | 15.07379 | 34677 ft | 465 kts | 54° |
| 2026-04-25 13:42 | 56.67126 | 15.17821 | 34656 ft | 479 kts | 55° |
| 2026-04-25 13:42 | 56.70358 | 15.28451 | 34634 ft | 477 kts | 55° |
| 2026-04-25 13:42 | 56.71939 | 15.33703 | 34448 ft | 470 kts | 55° |
| 2026-04-25 13:43 | 56.73502 | 15.38902 | 34055 ft | 467 kts | 55° |
| 2026-04-25 13:43 | 56.75066 | 15.44096 | 33595 ft | 467 kts | 55° |
| 2026-04-25 13:43 | 56.76633 | 15.49288 | 33144 ft | 467 kts | 55° |
| 2026-04-25 13:43 | 56.78193 | 15.54467 | 32694 ft | 466 kts | 55° |
| 2026-04-25 13:44 | 56.79747 | 15.59648 | 32254 ft | 465 kts | 55° |
| 2026-04-25 13:44 | 56.81291 | 15.64823 | 31811 ft | 463 kts | 55° |
| 2026-04-25 13:44 | 56.82822 | 15.69975 | 31395 ft | 461 kts | 55° |
| 2026-04-25 13:44 | 56.84347 | 15.75116 | 30973 ft | 460 kts | 55° |
| 2026-04-25 13:45 | 56.85867 | 15.80243 | 30568 ft | 458 kts | 55° |
| 2026-04-25 13:45 | 56.87381 | 15.85353 | 30156 ft | 457 kts | 55° |
| 2026-04-25 13:45 | 56.88888 | 15.90450 | 29756 ft | 455 kts | 55° |
| 2026-04-25 13:45 | 56.90390 | 15.95550 | 29279 ft | 454 kts | 55° |
| 2026-04-25 13:46 | 56.91881 | 16.00619 | 28795 ft | 452 kts | 55° |
| 2026-04-25 13:46 | 56.93366 | 16.05673 | 28327 ft | 450 kts | 55° |
| 2026-04-25 13:46 | 56.94842 | 16.10708 | 27862 ft | 448 kts | 55° |
| 2026-04-25 13:46 | 56.96313 | 16.15735 | 27405 ft | 446 kts | 55° |
| 2026-04-25 13:47 | 56.97776 | 16.20742 | 26954 ft | 445 kts | 55° |
| 2026-04-25 13:47 | 56.99231 | 16.25742 | 26510 ft | 443 kts | 55° |
| 2026-04-25 13:47 | 57.00676 | 16.30722 | 26071 ft | 442 kts | 55° |
| 2026-04-25 13:47 | 57.02116 | 16.35699 | 25638 ft | 439 kts | 55° |
| 2026-04-25 13:48 | 57.03543 | 16.40643 | 25212 ft | 437 kts | 55° |
| 2026-04-25 13:48 | 57.04961 | 16.45560 | 24798 ft | 435 kts | 56° |
| 2026-04-25 13:48 | 57.06372 | 16.50451 | 24391 ft | 432 kts | 56° |
| 2026-04-25 13:48 | 57.07774 | 16.55317 | 23981 ft | 430 kts | 56° |
| 2026-04-25 13:49 | 57.09165 | 16.60156 | 23582 ft | 427 kts | 56° |
| 2026-04-25 13:49 | 57.10544 | 16.64972 | 23188 ft | 424 kts | 56° |
| 2026-04-25 13:49 | 57.11909 | 16.69758 | 22711 ft | 421 kts | 56° |
| 2026-04-25 13:49 | 57.13262 | 16.74511 | 22241 ft | 418 kts | 56° |
| 2026-04-25 13:50 | 57.14604 | 16.79231 | 21776 ft | 414 kts | 56° |
| 2026-04-25 13:50 | 57.15935 | 16.83913 | 21318 ft | 410 kts | 56° |
| 2026-04-25 13:50 | 57.17252 | 16.88557 | 20865 ft | 407 kts | 56° |
| 2026-04-25 13:50 | 57.18556 | 16.93168 | 20424 ft | 403 kts | 56° |
| 2026-04-25 13:51 | 57.19844 | 16.97737 | 19984 ft | 400 kts | 57° |
| 2026-04-25 13:51 | 57.21117 | 17.02272 | 19544 ft | 397 kts | 57° |
| 2026-04-25 13:51 | 57.22378 | 17.06771 | 19121 ft | 393 kts | 57° |
| 2026-04-25 13:51 | 57.23628 | 17.11236 | 18699 ft | 389 kts | 57° |
| 2026-04-25 13:52 | 57.24865 | 17.15651 | 18291 ft | 386 kts | 57° |
| 2026-04-25 13:52 | 57.26092 | 17.20031 | 17866 ft | 382 kts | 57° |
| 2026-04-25 13:52 | 57.27307 | 17.24374 | 17386 ft | 378 kts | 57° |
| 2026-04-25 13:52 | 57.28505 | 17.28672 | 16916 ft | 375 kts | 57° |
| 2026-04-25 13:53 | 57.29692 | 17.32934 | 16453 ft | 371 kts | 57° |
| 2026-04-25 13:53 | 57.30865 | 17.37158 | 15998 ft | 367 kts | 58° |
| 2026-04-25 13:53 | 57.32027 | 17.41356 | 15472 ft | 366 kts | 58° |
| 2026-04-25 13:53 | 57.33180 | 17.45529 | 14951 ft | 364 kts | 58° |
| 2026-04-25 13:54 | 57.34328 | 17.49696 | 14434 ft | 362 kts | 58° |
| 2026-04-25 13:54 | 57.35467 | 17.53833 | 13932 ft | 359 kts | 58° |
| 2026-04-25 13:54 | 57.36595 | 17.57939 | 13439 ft | 356 kts | 59° |
| 2026-04-25 13:54 | 57.37712 | 17.62015 | 12882 ft | 353 kts | 59° |
| 2026-04-25 13:55 | 57.38820 | 17.66063 | 12298 ft | 351 kts | 59° |
| 2026-04-25 13:55 | 57.39925 | 17.70098 | 11647 ft | 351 kts | 59° |
| 2026-04-25 13:55 | 57.41026 | 17.74132 | 11006 ft | 350 kts | 59° |
| 2026-04-25 13:55 | 57.42121 | 17.78163 | 10389 ft | 349 kts | 59° |
| 2026-04-25 13:56 | 57.43211 | 17.82173 | 9767 ft | 347 kts | 59° |
| 2026-04-25 13:56 | 57.44295 | 17.86167 | 9081 ft | 346 kts | 59° |
| 2026-04-25 13:56 | 57.45443 | 17.90064 | 8358 ft | 340 kts | 53° |
| 2026-04-25 13:56 | 57.46686 | 17.93741 | 7669 ft | 332 kts | 53° |
| 2026-04-25 13:57 | 57.47902 | 17.97330 | 6986 ft | 325 kts | 53° |
| 2026-04-25 13:57 | 57.48693 | 17.99667 | 6546 ft | 320 kts | 53° |
| 2026-04-25 13:57 | 57.50163 | 18.04407 | 5638 ft | 316 kts | 64° |
| 2026-04-25 13:57 | 57.50612 | 18.08410 | 4955 ft | 318 kts | 84° |
| 2026-04-25 13:58 | 57.50298 | 18.12479 | 4277 ft | 321 kts | 105° |
| 2026-04-25 13:58 | 57.49539 | 18.16356 | 3588 ft | 316 kts | 103° |
| 2026-04-25 13:58 | 57.49515 | 18.20212 | 3375 ft | 286 kts | 69° |
| 2026-04-25 13:58 | 57.50507 | 18.23121 | 3226 ft | 257 kts | 34° |
| 2026-04-25 13:59 | 57.52032 | 18.24599 | 2920 ft | 244 kts | 16° |
| 2026-04-25 13:59 | 57.53633 | 18.25640 | 2587 ft | 243 kts | 15° |
| 2026-04-25 13:59 | 57.55198 | 18.26714 | 2291 ft | 234 kts | 17° |
| 2026-04-25 13:59 | 57.56682 | 18.27772 | 1977 ft | 221 kts | 17° |
| 2026-04-25 14:00 | 57.57606 | 18.28436 | 1805 ft | 208 kts | 16° |
| 2026-04-25 14:00 | 57.59311 | 18.29654 | 1473 ft | 185 kts | 15° |
| 2026-04-25 14:00 | 57.60462 | 18.30469 | 1226 ft | 171 kts | 15° |
| 2026-04-25 14:00 | 57.61524 | 18.31220 | 986 ft | 155 kts | 15° |
| 2026-04-25 14:01 | 57.62475 | 18.31900 | 822 ft | 144 kts | 15° |
| 2026-04-25 14:01 | 57.63458 | 18.32619 | 641 ft | 152 kts | 15° |
| 2026-04-25 14:01 | 57.64449 | 18.33316 | 420 ft | 150 kts | 16° |
| 2026-04-25 14:01 | 57.65383 | 18.33988 | 211 ft | 140 kts | 14° |
| 2026-04-25 14:02 | 57.66220 | 18.34558 | 157 ft | 104 kts | 21° |
| 2026-04-25 14:02 | 57.66639 | 18.34875 | 154 ft | 45 kts | 22° |
| 2026-04-25 14:02 | 57.66938 | 18.35093 | 158 ft | 44 kts | 20° |
| 2026-04-25 14:02 | 57.67024 | 18.35141 | 158 ft | 30 kts | 4° |
| 2026-04-25 14:03 | 57.67048 | 18.35179 | 159 ft | 9 kts | 197° |
| 2026-04-25 14:03 | 57.66950 | 18.35113 | 158 ft | 20 kts | 201° |
| 2026-04-25 14:03 | 57.66802 | 18.35000 | 155 ft | 25 kts | 203° |
| 2026-04-25 14:03 | 57.66640 | 18.34869 | 154 ft | 26 kts | 199° |
| 2026-04-25 14:04 | 57.66472 | 18.34755 | 156 ft | 26 kts | 201° |
| 2026-04-25 14:04 | 57.66305 | 18.34631 | 157 ft | 26 kts | 201° |
| 2026-04-25 14:04 | 57.66134 | 18.34515 | 158 ft | 26 kts | 200° |
| 2026-04-25 14:04 | 57.65981 | 18.34396 | 157 ft | 15 kts | 225° |
| 2026-04-25 14:05 | 57.65986 | 18.34219 | 159 ft | 14 kts | 291° |
| 2026-04-25 14:05 | 57.66000 | 18.34048 | 159 ft | 13 kts | 234° |
| 2026-04-25 14:05 | 57.65991 | 18.33948 | 159 ft | 9 kts | 330° |
| 2026-04-25 14:05 | 57.66013 | 18.33928 | 159 ft | 1 kts | 335° |
| 2026-04-25 14:06 | 57.66016 | 18.33925 | 159 ft | 0 kts | 335° |